createdAt,value
2016-07-03T00:01:10.855Z,1011.57
2016-07-03T00:04:23.572Z,1011.61
2016-07-03T00:07:40.218Z,1011.61
2016-07-03T00:10:48.021Z,1011.63
2016-07-03T00:13:51.795Z,1011.7
2016-07-03T00:17:04.417Z,1011.63
2016-07-03T00:20:17.400Z,1011.7
2016-07-03T00:23:30.188Z,1011.7
2016-07-03T00:26:47.748Z,1011.82
2016-07-03T00:29:50.532Z,1011.74
2016-07-03T00:33:01.154Z,1011.76
2016-07-03T00:36:13.668Z,1011.82
2016-07-03T00:39:26.268Z,1011.84
2016-07-03T00:42:42.785Z,1011.82
2016-07-03T00:45:47.192Z,1011.82
2016-07-03T00:49:00.326Z,1011.82
2016-07-03T00:52:10.492Z,1011.82
2016-07-03T00:55:23.511Z,1011.88
2016-07-03T00:58:40.666Z,1011.82
2016-07-03T01:01:48.937Z,1011.82
2016-07-03T01:04:53.051Z,1011.78
2016-07-03T01:08:05.898Z,1011.86
2016-07-03T01:11:18.529Z,1011.9
2016-07-03T01:14:31.016Z,1011.86
2016-07-03T01:17:47.140Z,1011.84
2016-07-03T01:20:50.644Z,1011.86
2016-07-03T01:24:03.028Z,1011.98
2016-07-03T01:27:15.325Z,1012.02
2016-07-03T01:30:27.774Z,1012
2016-07-03T01:33:43.035Z,1012.02
2016-07-03T01:36:46.517Z,1011.94
2016-07-03T01:39:58.894Z,1012.08
2016-07-03T01:43:11.282Z,1012.14
2016-07-03T01:46:23.187Z,1012.12
2016-07-03T01:49:35.644Z,1012.1
2016-07-03T01:52:47.845Z,1012.26
2016-07-03T01:56:00.145Z,1012.2
2016-07-03T01:59:12.446Z,1012.26
2016-07-03T02:02:24.748Z,1012.24
2016-07-03T02:05:40.763Z,1012.3
2016-07-03T02:08:48.024Z,1012.32
2016-07-03T02:11:51.395Z,1012.38
2016-07-03T02:15:03.785Z,1012.38
2016-07-03T02:18:16.169Z,1012.44
2016-07-03T02:21:28.424Z,1012.38
2016-07-03T02:24:44.797Z,1012.36
2016-07-03T02:27:48.202Z,1012.4
2016-07-03T02:31:00.188Z,1012.5
2016-07-03T02:34:12.575Z,1012.54
2016-07-03T02:37:23.906Z,1012.48
2016-07-03T02:40:35.978Z,1012.48
2016-07-03T02:43:47.959Z,1012.52
2016-07-03T02:46:59.959Z,1012.5
2016-07-03T02:50:11.005Z,1012.64
2016-07-03T02:53:24.053Z,1012.56
2016-07-03T02:56:36.046Z,1012.54
2016-07-03T02:59:48.283Z,1012.68
2016-07-03T03:02:58.183Z,1012.68
2016-07-03T03:06:09.447Z,1012.62
2016-07-03T03:09:22.742Z,1012.78
2016-07-03T03:12:34.743Z,1012.72
2016-07-03T03:15:48.513Z,1012.8
2016-07-03T03:18:51.719Z,1012.82
2016-07-03T03:22:03.969Z,1012.84
2016-07-03T03:25:14.927Z,1012.78
2016-07-03T03:28:27.278Z,1012.84
2016-07-03T03:31:43.578Z,1012.72
2016-07-03T03:34:45.917Z,1012.76
2016-07-03T03:37:59.443Z,1012.82
2016-07-03T03:41:11.133Z,1012.76
2016-07-03T03:44:23.491Z,1012.84
2016-07-03T03:47:35.815Z,1012.76
2016-07-03T03:50:48.097Z,1012.78
2016-07-03T03:53:57.875Z,1012.88
2016-07-03T03:57:09.970Z,1012.84
2016-07-03T04:00:21.859Z,1012.78
2016-07-03T04:03:34.159Z,1012.84
2016-07-03T04:06:50.259Z,1012.84
2016-07-03T04:09:53.658Z,1012.84
2016-07-03T04:13:05.642Z,1012.84
2016-07-03T04:16:17.866Z,1012.92
2016-07-03T04:19:30.091Z,1012.88
2016-07-03T04:22:46.174Z,1012.86
2016-07-03T04:25:49.495Z,1012.9
2016-07-03T04:29:01.865Z,1012.9
2016-07-03T04:32:14.277Z,1012.96
2016-07-03T04:35:26.444Z,1013.02
2016-07-03T04:38:42.630Z,1013.04
2016-07-03T04:41:50.023Z,1012.92
2016-07-03T04:44:53.342Z,1012.9
2016-07-03T04:48:05.843Z,1012.96
2016-07-03T04:51:16.566Z,1012.94
2016-07-03T04:54:29.290Z,1012.98
2016-07-03T04:57:45.842Z,1012.84
2016-07-03T05:00:49.427Z,1012.84
2016-07-03T05:04:01.630Z,1012.9
2016-07-03T05:07:14.269Z,1012.92
2016-07-03T05:10:23.543Z,1012.84
2016-07-03T05:13:36.153Z,1012.82
2016-07-03T05:16:48.355Z,1012.86
2016-07-03T05:19:57.769Z,1012.78
2016-07-03T05:23:08.260Z,1012.86
2016-07-03T05:26:20.701Z,1012.8
2016-07-03T05:29:33.284Z,1012.78
2016-07-03T05:32:48.087Z,1012.86
2016-07-03T05:35:51.919Z,1012.8
2016-07-03T05:39:04.960Z,1012.8
2016-07-03T05:42:15.230Z,1012.86
2016-07-03T05:45:28.091Z,1012.8
2016-07-03T05:48:45.340Z,1012.82
2016-07-03T05:51:49.991Z,1012.88
2016-07-03T05:55:01.031Z,1012.98
2016-07-03T05:58:14.415Z,1012.86
2016-07-03T06:01:27.811Z,1012.92
2016-07-03T06:04:44.979Z,1012.84
2016-07-03T06:07:49.728Z,1012.92
2016-07-03T06:11:03.346Z,1012.86
2016-07-03T06:14:16.900Z,1012.92
2016-07-03T06:17:30.495Z,1012.86
2016-07-03T06:20:45.660Z,1012.8
2016-07-03T06:23:50.558Z,1012.88
2016-07-03T06:27:04.189Z,1012.8
2016-07-03T06:30:17.930Z,1012.74
2016-07-03T06:33:30.036Z,1012.7
2016-07-03T06:36:47.775Z,1012.66
2016-07-03T06:39:52.930Z,1012.58
2016-07-03T06:43:06.429Z,1012.62
2016-07-03T06:46:20.070Z,1012.6
2016-07-03T06:49:33.918Z,1012.66
2016-07-03T06:52:48.208Z,1012.5
2016-07-03T06:56:02.532Z,1012.5
2016-07-03T06:59:17.464Z,1012.66
2016-07-03T07:02:31.990Z,1012.72
2016-07-03T07:05:49.979Z,1012.58
2016-07-03T07:08:55.487Z,1012.46
2016-07-03T07:12:10.096Z,1012.32
2016-07-03T07:15:24.581Z,1012.46
2016-07-03T07:18:42.786Z,1012.42
2016-07-03T07:21:48.411Z,1012.36
2016-07-03T07:25:02.826Z,1012.18
2016-07-03T07:28:17.412Z,1012.3
2016-07-03T07:31:32.187Z,1012.42
2016-07-03T07:34:50.492Z,1012.32
2016-07-03T07:37:56.491Z,1012.4
2016-07-03T07:41:11.151Z,1012.84
2016-07-03T07:44:25.327Z,1013
2016-07-03T07:47:43.254Z,1012.62
2016-07-03T07:50:48.803Z,1012.64
2016-07-03T07:54:03.270Z,1012.56
2016-07-03T07:57:17.600Z,1012.9
2016-07-03T08:00:31.216Z,1013.02
2016-07-03T08:03:48.967Z,1013
2016-07-03T08:06:54.310Z,1012.86
2016-07-03T08:10:08.393Z,1012.64
2016-07-03T08:13:22.718Z,1012.98
2016-07-03T08:16:36.666Z,1012.6
2016-07-03T08:19:50.667Z,1012.6
2016-07-03T08:23:05.029Z,1012.44
2016-07-03T08:26:19.801Z,1012.46
2016-07-03T08:29:34.832Z,1012.38
2016-07-03T08:32:49.838Z,1012.4
2016-07-03T08:36:04.230Z,1012.7
2016-07-03T08:39:18.054Z,1012.44
2016-07-03T08:42:31.851Z,1012.76
2016-07-03T08:45:49.640Z,1012.78
2016-07-03T08:48:54.798Z,1012.72
2016-07-03T08:52:08.254Z,1012.94
2016-07-03T08:55:21.803Z,1013.02
2016-07-03T08:58:35.378Z,1012.64
2016-07-03T09:01:49.651Z,1012.6
2016-07-03T09:05:04.212Z,1012.54
2016-07-03T09:08:18.944Z,1012.5
2016-07-03T09:11:33.859Z,1012.38
2016-07-03T09:14:48.762Z,1012.68
2016-07-03T09:18:03.399Z,1012.76
2016-07-03T09:21:17.125Z,1012.56
2016-07-03T09:24:31.659Z,1012.52
2016-07-03T09:27:50.445Z,1012.36
2016-07-03T09:30:56.076Z,1012.82
2016-07-03T09:34:09.766Z,1012.76
2016-07-03T09:37:23.453Z,1012.6
2016-07-03T09:40:41.875Z,1012.38
2016-07-03T09:43:47.966Z,1012.48
2016-07-03T09:47:02.526Z,1012.7
2016-07-03T09:50:16.117Z,1012.72
2016-07-03T09:53:29.594Z,1012.7
2016-07-03T09:56:47.293Z,1012.54
2016-07-03T09:59:52.903Z,1012.6
2016-07-03T10:03:07.563Z,1012.48
2016-07-03T10:06:22.049Z,1012.52
2016-07-03T10:09:36.627Z,1012.46
2016-07-03T10:12:50.648Z,1012.44
2016-07-03T10:16:04.757Z,1012.3
2016-07-03T10:19:18.716Z,1012.42
2016-07-03T10:22:32.652Z,1012.38
2016-07-03T10:25:50.470Z,1012.38
2016-07-03T10:28:55.546Z,1012.48
2016-07-03T10:32:09.325Z,1012.34
2016-07-03T10:35:22.801Z,1012.32
2016-07-03T10:38:36.311Z,1012.3
2016-07-03T10:41:49.833Z,1012.32
2016-07-03T10:45:03.568Z,1012.38
2016-07-03T10:48:16.405Z,1012.36
2016-07-03T10:51:31.011Z,1012.42
2016-07-03T10:54:48.444Z,1012.4
2016-07-03T10:57:53.276Z,1012.24
2016-07-03T11:01:06.726Z,1012.28
2016-07-03T11:04:20.267Z,1012.26
2016-07-03T11:07:33.812Z,1012.22
2016-07-03T11:10:51.354Z,1012.08
2016-07-03T11:13:56.280Z,1012.06
2016-07-03T11:17:09.889Z,1012.1
2016-07-03T11:20:23.059Z,1012.18
2016-07-03T11:23:36.567Z,1011.98
2016-07-03T11:26:49.973Z,1012.02
2016-07-03T11:30:03.403Z,1011.92
2016-07-03T11:33:16.996Z,1011.92
2016-07-03T11:36:30.476Z,1011.96
2016-07-03T11:39:46.092Z,1011.96
2016-07-03T11:42:50.896Z,1011.9
2016-07-03T11:46:04.809Z,1011.82
2016-07-03T11:49:18.745Z,1011.82
2016-07-03T11:52:32.673Z,1011.76
2016-07-03T11:55:50.211Z,1011.7
2016-07-03T11:58:55.352Z,1011.72
2016-07-03T12:02:09.031Z,1011.76
2016-07-03T12:05:22.885Z,1011.82
2016-07-03T12:08:36.820Z,1011.63
2016-07-03T12:11:50.362Z,1011.66
2016-07-03T12:15:04.279Z,1011.76
2016-07-03T12:18:18.089Z,1011.76
2016-07-03T12:21:31.800Z,1011.59
2016-07-03T12:24:49.512Z,1011.63
2016-07-03T12:27:54.456Z,1011.63
2016-07-03T12:31:07.936Z,1011.66
2016-07-03T12:34:21.843Z,1011.47
2016-07-03T12:37:35.624Z,1011.59
2016-07-03T12:40:49.465Z,1011.59
2016-07-03T12:44:03.271Z,1011.57
2016-07-03T12:47:17.114Z,1011.55
2016-07-03T12:50:30.951Z,1011.39
2016-07-03T12:53:48.599Z,1011.45
2016-07-03T12:56:53.728Z,1011.51
2016-07-03T13:00:07.510Z,1011.47
2016-07-03T13:03:21.227Z,1011.45
2016-07-03T13:06:35.023Z,1011.41
2016-07-03T13:09:48.765Z,1011.45
2016-07-03T13:12:59.603Z,1011.43
2016-07-03T13:16:13.466Z,1011.43
2016-07-03T13:19:27.161Z,1011.49
2016-07-03T13:22:45.220Z,1011.33
2016-07-03T13:25:50.380Z,1011.55
2016-07-03T13:29:04.107Z,1011.43
2016-07-03T13:32:16.951Z,1011.49
2016-07-03T13:35:31.872Z,1011.45
2016-07-03T13:38:47.822Z,1011.61
2016-07-03T13:41:52.874Z,1011.51
2016-07-03T13:45:06.557Z,1011.43
2016-07-03T13:48:20.250Z,1011.47
2016-07-03T13:51:33.311Z,1011.43
2016-07-03T13:54:51.160Z,1011.43
2016-07-03T13:57:56.291Z,1011.33
2016-07-03T14:01:09.983Z,1011.33
2016-07-03T14:04:23.475Z,1011.37
2016-07-03T14:07:37.007Z,1011.37
2016-07-03T14:10:50.355Z,1011.37
2016-07-03T14:14:04.198Z,1011.33
2016-07-03T14:17:17.952Z,1011.35
2016-07-03T14:20:31.765Z,1011.37
2016-07-03T14:23:49.182Z,1011.35
2016-07-03T14:26:54.188Z,1011.33
2016-07-03T14:30:06.935Z,1011.25
2016-07-03T14:33:20.605Z,1011.19
2016-07-03T14:36:34.478Z,1011.17
2016-07-03T14:39:52.262Z,1011.21
2016-07-03T14:42:57.248Z,1011.35
2016-07-03T14:46:10.940Z,1011.29
2016-07-03T14:49:24.576Z,1011.23
2016-07-03T14:52:38.582Z,1011.29
2016-07-03T14:55:52.589Z,1011.19
2016-07-03T14:59:04.319Z,1011.25
2016-07-03T15:02:18.031Z,1011.27
2016-07-03T15:05:31.484Z,1011.27
2016-07-03T15:08:49.101Z,1011.23
2016-07-03T15:11:54.118Z,1011.33
2016-07-03T15:15:07.754Z,1011.25
2016-07-03T15:18:21.510Z,1011.31
2016-07-03T15:21:35.173Z,1011.33
2016-07-03T15:24:53.020Z,1011.47
2016-07-03T15:27:58.159Z,1011.33
2016-07-03T15:31:11.344Z,1011.47
2016-07-03T15:34:25.193Z,1011.31
2016-07-03T15:37:38.934Z,1011.33
2016-07-03T15:40:52.861Z,1011.39
2016-07-03T15:44:03.951Z,1011.39
2016-07-03T15:47:17.695Z,1011.35
2016-07-03T15:50:31.489Z,1011.37
2016-07-03T15:53:49.133Z,1011.39
2016-07-03T15:56:54.157Z,1011.51
2016-07-03T16:00:07.953Z,1011.55
2016-07-03T16:03:21.831Z,1011.55
2016-07-03T16:06:35.642Z,1011.53
2016-07-03T16:09:53.467Z,1011.61
2016-07-03T16:12:58.462Z,1011.66
2016-07-03T16:16:12.193Z,1011.68
2016-07-03T16:19:25.894Z,1011.76
2016-07-03T16:22:39.730Z,1011.7
2016-07-03T16:25:53.417Z,1011.72
2016-07-03T16:29:07.015Z,1011.78
2016-07-03T16:32:18.960Z,1011.8
2016-07-03T16:35:32.363Z,1011.86
2016-07-03T16:38:49.968Z,1011.8
2016-07-03T16:41:54.805Z,1011.84
2016-07-03T16:45:08.350Z,1011.94
2016-07-03T16:48:20.540Z,1012.02
2016-07-03T16:51:35.250Z,1012
2016-07-03T16:54:52.676Z,1012
2016-07-03T16:57:57.574Z,1012.04
2016-07-03T17:01:11.215Z,1012.08
2016-07-03T17:04:25.299Z,1012.24
2016-07-03T17:07:39.272Z,1012.26
2016-07-03T17:10:53.282Z,1012.22
2016-07-03T17:14:07.314Z,1012.22
2016-07-03T17:17:21.193Z,1012.2
2016-07-03T17:20:35.003Z,1012.26
2016-07-03T17:23:52.803Z,1012.24
2016-07-03T17:26:58.029Z,1012.26
2016-07-03T17:30:11.841Z,1012.16
2016-07-03T17:33:25.779Z,1012.22
2016-07-03T17:36:39.694Z,1012.34
2016-07-03T17:39:53.342Z,1012.3
2016-07-03T17:43:06.984Z,1012.3
2016-07-03T17:46:20.993Z,1012.36
2016-07-03T17:49:34.371Z,1012.38
2016-07-03T17:52:52.189Z,1012.44
2016-07-03T17:55:57.410Z,1012.36
2016-07-03T17:59:09.703Z,1012.44
2016-07-03T18:02:23.614Z,1012.52
2016-07-03T18:05:37.604Z,1012.62
2016-07-03T18:08:50.603Z,1012.58
2016-07-03T18:12:04.352Z,1012.72
2016-07-03T18:15:18.114Z,1012.7
2016-07-03T18:18:31.882Z,1012.78
2016-07-03T18:21:49.603Z,1012.82
2016-07-03T18:24:54.596Z,1012.84
2016-07-03T18:28:07.919Z,1012.92
2016-07-03T18:31:21.559Z,1012.94
2016-07-03T18:34:35.276Z,1013.07
2016-07-03T18:37:52.918Z,1013.09
2016-07-03T18:40:58.223Z,1013.13
2016-07-03T18:44:09.022Z,1012.98
2016-07-03T18:47:22.814Z,1013.04
2016-07-03T18:50:34.667Z,1013.04
2016-07-03T18:53:54.100Z,1013.09
2016-07-03T18:56:55.958Z,1013.04
2016-07-03T19:00:09.691Z,1013.09
2016-07-03T19:03:22.360Z,1013.06
2016-07-03T19:06:34.004Z,1013.17
2016-07-03T19:09:50.057Z,1013.21
2016-07-03T19:12:54.911Z,1013.17
2016-07-03T19:16:08.537Z,1013.23
2016-07-03T19:19:21.993Z,1013.27
2016-07-03T19:22:35.494Z,1013.33
2016-07-03T19:25:53.094Z,1013.37
2016-07-03T19:28:57.963Z,1013.41
2016-07-03T19:32:11.378Z,1013.33
2016-07-03T19:35:24.926Z,1013.55
2016-07-03T19:38:38.489Z,1013.55
2016-07-03T19:41:52.154Z,1013.63
2016-07-03T19:45:03.516Z,1013.63
2016-07-03T19:48:17.040Z,1013.69
2016-07-03T19:51:29.084Z,1013.71
2016-07-03T19:54:47.509Z,1013.81
2016-07-03T19:57:52.354Z,1013.73
2016-07-03T20:01:05.874Z,1013.77
2016-07-03T20:04:18.891Z,1013.87
2016-07-03T20:07:31.037Z,1013.85
2016-07-03T20:10:49.385Z,1013.95
2016-07-03T20:13:54.159Z,1013.91
2016-07-03T20:17:07.273Z,1013.95
2016-07-03T20:20:20.503Z,1013.95
2016-07-03T20:23:32.922Z,1013.95
2016-07-03T20:26:50.440Z,1014.09
2016-07-03T20:29:55.157Z,1014.15
2016-07-03T20:33:08.569Z,1014.19
2016-07-03T20:36:22.023Z,1014.23
2016-07-03T20:39:35.650Z,1014.23
2016-07-03T20:42:50.768Z,1014.19
2016-07-03T20:45:55.504Z,1014.23
2016-07-03T20:49:09.251Z,1014.33
2016-07-03T20:52:23.129Z,1014.21
2016-07-03T20:55:36.784Z,1014.31
2016-07-03T20:58:53.664Z,1014.41
2016-07-03T21:01:58.692Z,1014.53
2016-07-03T21:05:11.100Z,1014.45
2016-07-03T21:08:25.840Z,1014.41
2016-07-03T21:11:38.334Z,1014.41
2016-07-03T21:14:52.518Z,1014.47
2016-07-03T21:18:06.097Z,1014.39
2016-07-03T21:21:19.698Z,1014.39
2016-07-03T21:24:33.264Z,1014.49
2016-07-03T21:27:50.740Z,1014.57
2016-07-03T21:30:55.695Z,1014.59
2016-07-03T21:34:09.527Z,1014.63
2016-07-03T21:37:23.108Z,1014.59
2016-07-03T21:40:37.040Z,1014.65
2016-07-03T21:43:54.411Z,1014.71
2016-07-03T21:46:59.377Z,1014.65
2016-07-03T21:50:13.152Z,1014.75
2016-07-03T21:53:26.908Z,1014.73
2016-07-03T21:56:40.731Z,1014.77
2016-07-03T21:59:54.145Z,1014.77
2016-07-03T22:03:07.882Z,1014.81
2016-07-03T22:06:21.586Z,1014.87
2016-07-03T22:09:32.686Z,1014.81
2016-07-03T22:12:50.343Z,1014.85
2016-07-03T22:15:54.188Z,1014.89
2016-07-03T22:19:09.012Z,1014.91
2016-07-03T22:22:22.760Z,1014.89
2016-07-03T22:25:36.479Z,1014.93
2016-07-03T22:28:52.517Z,1014.94
2016-07-03T22:31:57.496Z,1015.04
2016-07-03T22:35:11.286Z,1015.08
2016-07-03T22:38:25.014Z,1015.04
2016-07-03T22:41:38.704Z,1015.14
2016-07-03T22:44:56.169Z,1015.14
2016-07-03T22:48:01.173Z,1015.2
2016-07-03T22:51:14.851Z,1015.08
2016-07-03T22:54:28.635Z,1015.18
2016-07-03T22:57:42.209Z,1015.28
2016-07-03T23:00:53.929Z,1015.34
2016-07-03T23:04:07.558Z,1015.16
2016-07-03T23:07:21.480Z,1015.2
2016-07-03T23:10:35.206Z,1015.12
2016-07-03T23:13:51.010Z,1015.26
2016-07-03T23:16:56.176Z,1015.24
2016-07-03T23:20:09.846Z,1015.24
2016-07-03T23:23:23.686Z,1015.24
2016-07-03T23:26:37.755Z,1015.32
2016-07-03T23:29:55.449Z,1015.36
2016-07-03T23:33:00.608Z,1015.28
2016-07-03T23:36:14.462Z,1015.34
2016-07-03T23:39:28.494Z,1015.26
2016-07-03T23:42:42.415Z,1015.26
2016-07-03T23:45:54.887Z,1015.28
2016-07-03T23:49:08.984Z,1015.2
2016-07-03T23:52:20.116Z,1015.26
2016-07-03T23:55:33.180Z,1015.26
2016-07-03T23:58:51.120Z,1015.18
